Fort Myers, FL (33903)

11:00 PM EDT on July 27, 2016 (GMT -0400)
K3PSP South | | Change Station

Elev 13 ft 26.69 °N, 81.93 °W | Updated 17 seconds ago

Partly Cloudy
Partly Cloudy
81.1 °F
Feels Like 85 °F
N
0.0
Wind Variable Wind from WNW
Gusts 0.0 mph

Today
High -- | Low -- °F
--% Chance of Precip.
Yesterday
High -- | Low -- °F
Precip. -- in
Pressure 30.06 in
Visibility 10.0 miles
Clouds Few 5000 ft
Heat Index 85 °F
Dew Point 70 °F
Humidity 69%
Rainfall 0.00 in
Snow Depth Not available.
6:50 AM 8:17 PM
Last Quarter, 37% visible
METAR KFMY 280253Z AUTO 03006KT 10SM FEW050 28/25 A3006 RMK AO2 SLP180 T02830250 53015
Pressure 30.06 in
Visibility 10.0 miles
Clouds Few 5000 ft
Heat Index 85 °F
Dew Point 70 °F
Humidity 69%
Rainfall 0.00 in
Snow Depth Not available.
6:50 AM 8:17 PM
Last Quarter, 37% visible
METAR KFMY 280253Z AUTO 03006KT 10SM FEW050 28/25 A3006 RMK AO2 SLP180 T02830250 53015

10-Day Weather Forecast

Almanac

Astronomy

Jul. 27, 2016 Rise Set
Actual Time
Civil Twilight
Nautical Twilight
Astronomical Twilight
Moon
Length of Visible Light
Length of Day
Tomorrow will be .
, % of the Moon is Illuminated

Today's Extremes

State Highs State Lows

Community

WunderPhotos

Upload Photos

1,928,022 photos uploaded!

WunderBlog® & News

Nearby

Air Quality

  Air Quality AQ Index Pollutant
Not available.

Snow Depth

Station Depth Elevation

Earthquake Activity

City Distance Mag. Time & Date
Minimum magnitude displayed is 2.5.

Coastal Water Temperatures

Place Temperature

Stations

Nearby Weather Stations

Station Location Temp. Windchill Dew Point Humidity Wind Precip. Elev Updated Type
                   

Watches & Warnings

There are currently no watches in effect.